createdAt,value
2022-11-09T00:01:21.905Z,6.70
2022-11-09T00:06:24.821Z,7.38
2022-11-09T00:11:26.569Z,7.63
2022-11-09T00:16:28.306Z,7.55
2022-11-09T00:21:29.987Z,7.82
2022-11-09T00:26:31.760Z,7.20
2022-11-09T00:31:34.300Z,6.57
2022-11-09T00:36:35.973Z,7.03
2022-11-09T00:41:37.678Z,6.45
2022-11-09T00:46:39.416Z,7.50
2022-11-09T00:51:41.260Z,6.80
2022-11-09T00:56:43.346Z,7.00
2022-11-09T01:01:45.785Z,7.82
2022-11-09T01:06:47.516Z,8.80
2022-11-09T01:11:49.336Z,9.18
2022-11-09T01:16:51.495Z,8.20
2022-11-09T01:21:53.372Z,10.27
2022-11-09T01:26:55.823Z,8.68
2022-11-09T01:31:57.480Z,7.40
2022-11-09T01:36:59.776Z,10.02
2022-11-09T01:42:04.439Z,9.18
2022-11-09T01:47:14.880Z,9.88
2022-11-09T01:52:25.856Z,8.38
2022-11-09T01:57:40.019Z,8.23
2022-11-09T02:02:47.953Z,9.77
2022-11-09T02:07:51.954Z,10.90
2022-11-09T02:12:58.440Z,12.57
2022-11-09T02:18:00.491Z,12.48
2022-11-09T02:23:02.367Z,11.30
2022-11-09T02:28:04.913Z,13.20
2022-11-09T02:33:06.701Z,12.93
2022-11-09T02:38:13.676Z,12.38
2022-11-09T02:43:16.510Z,12.50
2022-11-09T02:48:19.595Z,14.07
2022-11-09T02:53:21.753Z,16.08
2022-11-09T02:58:23.679Z,12.43
2022-11-09T03:03:25.464Z,14.27
2022-11-09T03:08:27.253Z,15.32
2022-11-09T03:13:29.311Z,15.05
2022-11-09T03:18:31.487Z,15.88
2022-11-09T03:23:33.938Z,16.25
2022-11-09T03:28:37.023Z,14.95
2022-11-09T03:33:39.199Z,16.52
2022-11-09T03:38:41.396Z,17.45
2022-11-09T03:43:43.240Z,16.25
2022-11-09T03:48:44.897Z,17.63
2022-11-09T03:53:46.587Z,17.80
2022-11-09T03:58:48.893Z,16.17
2022-11-09T04:03:50.578Z,16.50
2022-11-09T04:08:52.278Z,17.25
2022-11-09T04:13:54.137Z,16.80
2022-11-09T04:18:55.835Z,17.27
2022-11-09T04:23:57.578Z,16.42
2022-11-09T04:28:59.248Z,18.35
2022-11-09T04:34:00.975Z,17.88
2022-11-09T04:39:02.674Z,17.08
2022-11-09T04:44:04.648Z,18.23
2022-11-09T04:49:06.445Z,17.67
2022-11-09T04:54:08.128Z,17.58
2022-11-09T04:59:09.927Z,17.13
2022-11-09T05:04:11.745Z,17.20
2022-11-09T05:09:13.481Z,18.27
2022-11-09T05:14:15.252Z,17.20
2022-11-09T05:19:16.994Z,19.42
2022-11-09T05:24:18.664Z,18.70
2022-11-09T05:29:20.336Z,18.17
2022-11-09T05:34:22.004Z,19.65
2022-11-09T05:39:23.663Z,19.00
2022-11-09T05:44:25.757Z,16.77
2022-11-09T05:49:27.477Z,19.15
2022-11-09T05:54:29.147Z,16.95
2022-11-09T05:59:30.836Z,18.55
2022-11-09T06:04:32.516Z,16.85
2022-11-09T06:09:34.205Z,16.50
2022-11-09T06:14:35.880Z,15.90
2022-11-09T06:19:37.572Z,16.50
2022-11-09T06:24:39.302Z,15.52
2022-11-09T06:29:40.995Z,16.95
2022-11-09T06:34:44.373Z,16.23
2022-11-09T06:39:47.647Z,15.73
2022-11-09T06:44:49.351Z,16.17
2022-11-09T06:49:51.071Z,16.58
2022-11-09T06:54:52.763Z,16.38
2022-11-09T06:59:54.449Z,15.02
2022-11-09T07:04:56.330Z,18.00
2022-11-09T07:09:58.319Z,15.02
2022-11-09T07:15:00.238Z,15.05
2022-11-09T07:20:02.043Z,15.65
2022-11-09T07:25:04.069Z,14.70
2022-11-09T07:30:06.624Z,16.15
2022-11-09T07:35:09.947Z,16.15
2022-11-09T07:40:12.499Z,15.10
2022-11-09T07:45:14.389Z,16.15
2022-11-09T07:50:16.316Z,16.55
2022-11-09T07:55:18.671Z,16.08
2022-11-09T08:00:23.641Z,17.52
2022-11-09T08:05:26.412Z,15.85
2022-11-09T08:10:29.545Z,15.40
2022-11-09T08:15:31.844Z,15.93
2022-11-09T08:20:34.405Z,17.27
2022-11-09T08:25:36.443Z,15.27
2022-11-09T08:30:38.133Z,13.80
2022-11-09T08:35:39.928Z,12.38
2022-11-09T08:40:41.608Z,11.82
2022-11-09T08:45:43.285Z,11.07
2022-11-09T08:50:44.981Z,17.15
2022-11-09T08:55:49.522Z,14.18
2022-11-09T09:00:51.703Z,13.27
2022-11-09T09:05:53.377Z,10.05
2022-11-09T09:10:55.057Z,12.02
2022-11-09T09:15:56.914Z,11.73
2022-11-09T09:20:58.616Z,11.15
2022-11-09T09:26:00.408Z,12.27
2022-11-09T09:31:02.463Z,12.57
2022-11-09T09:36:04.848Z,12.60
2022-11-09T09:41:07.874Z,10.82
2022-11-09T09:46:24.908Z,11.73
2022-11-09T09:51:42.786Z,11.48
2022-11-09T09:56:46.929Z,11.68
2022-11-09T10:01:50.926Z,10.48
2022-11-09T10:07:02.269Z,10.32
2022-11-09T10:12:12.258Z,12.25
2022-11-09T10:17:37.319Z,10.20
2022-11-09T10:22:41.713Z,11.90
2022-11-09T10:27:53.827Z,12.80
2022-11-09T10:33:11.950Z,12.02
2022-11-09T10:38:21.207Z,11.95
2022-11-09T10:43:41.886Z,10.15
2022-11-09T10:49:20.017Z,13.65
2022-11-09T10:54:40.301Z,11.18
2022-11-09T11:00:01.073Z,11.68
2022-11-09T11:05:25.708Z,11.50
2022-11-09T11:10:46.126Z,11.18
2022-11-09T11:16:18.671Z,11.18
2022-11-09T11:21:38.567Z,25.63
2022-11-09T11:27:10.528Z,12.10
2022-11-09T11:32:31.408Z,11.45
2022-11-09T11:38:27.742Z,11.93
2022-11-09T11:43:53.965Z,11.38
2022-11-09T11:49:17.514Z,10.43
2022-11-09T11:54:57.130Z,11.02
2022-11-09T12:00:20.174Z,9.48
2022-11-09T12:05:46.501Z,9.70
2022-11-09T12:11:12.808Z,12.00
2022-11-09T12:16:42.046Z,11.40
2022-11-09T12:22:13.315Z,10.32
2022-11-09T12:27:51.153Z,10.48
2022-11-09T12:33:23.964Z,9.88
2022-11-09T12:39:05.572Z,9.88
2022-11-09T12:44:30.460Z,9.77
2022-11-09T12:49:51.135Z,10.20
2022-11-09T12:55:15.645Z,9.90
2022-11-09T13:00:35.822Z,9.95
2022-11-09T13:06:16.824Z,9.02
2022-11-09T13:11:43.975Z,8.82
2022-11-09T13:17:23.694Z,8.95
2022-11-09T13:22:44.136Z,7.90
2022-11-09T13:28:24.353Z,7.05
2022-11-09T13:33:44.960Z,8.25
2022-11-09T13:39:29.698Z,7.03
2022-11-09T13:44:50.174Z,7.40
2022-11-09T13:50:39.448Z,7.38
2022-11-09T13:56:22.486Z,7.13
2022-11-09T14:01:59.791Z,8.15
2022-11-09T14:07:24.693Z,7.50
2022-11-09T14:13:03.879Z,8.05
2022-11-09T14:18:41.047Z,7.72
2022-11-09T14:24:19.163Z,8.05
2022-11-09T14:29:54.531Z,9.70
2022-11-09T14:35:25.863Z,9.32
2022-11-09T14:40:48.323Z,7.57
2022-11-09T14:46:18.400Z,7.28
2022-11-09T14:51:40.394Z,7.22
2022-11-09T14:57:01.077Z,7.95
2022-11-09T15:02:23.615Z,15.05
2022-11-09T15:07:48.240Z,17.23
2022-11-09T15:13:08.685Z,17.25
2022-11-09T15:18:34.381Z,17.70
2022-11-09T15:24:09.717Z,19.23
2022-11-09T15:29:40.938Z,19.45
2022-11-09T15:35:01.299Z,20.35
2022-11-09T15:40:25.006Z,26.17
2022-11-09T15:45:45.062Z,19.77
2022-11-09T15:51:05.413Z,19.45
2022-11-09T15:56:25.811Z,22.52
2022-11-09T16:01:46.074Z,20.23
2022-11-09T16:07:07.431Z,21.63
2022-11-09T16:12:27.563Z,20.30
2022-11-09T16:17:50.315Z,21.05
2022-11-09T16:23:10.305Z,20.80
2022-11-09T16:28:30.736Z,19.60
2022-11-09T16:33:50.896Z,20.27
2022-11-09T16:39:17.237Z,20.20
2022-11-09T16:44:41.559Z,21.83
2022-11-09T16:50:01.487Z,21.48
2022-11-09T16:55:21.830Z,22.38
2022-11-09T17:06:27.251Z,21.33
2022-11-09T17:11:47.627Z,21.38
2022-11-09T17:17:07.878Z,21.65
2022-11-09T17:22:28.173Z,21.88
2022-11-09T17:27:48.424Z,22.20
2022-11-09T17:33:08.612Z,21.52
2022-11-09T17:38:30.124Z,22.23
2022-11-09T17:43:50.589Z,22.98
2022-11-09T17:49:10.990Z,22.95
2022-11-09T17:54:36.476Z,21.05
2022-11-09T17:59:57.383Z,20.85
2022-11-09T18:05:17.479Z,21.83
2022-11-09T18:10:39.363Z,22.15
2022-11-09T18:16:09.459Z,21.90
2022-11-09T18:21:33.567Z,21.73
2022-11-09T18:26:54.123Z,23.73
2022-11-09T18:32:14.420Z,22.17
2022-11-09T18:37:38.319Z,21.85
2022-11-09T18:43:00.356Z,22.40
2022-11-09T18:48:20.728Z,21.17
2022-11-09T18:53:43.074Z,22.02
2022-11-09T18:59:03.186Z,22.77
2022-11-09T19:04:23.519Z,22.50
2022-11-09T19:09:43.980Z,24.92
2022-11-09T19:15:04.608Z,26.15
2022-11-09T19:20:24.564Z,26.17
2022-11-09T19:25:44.943Z,24.35
2022-11-09T19:31:05.233Z,23.67
2022-11-09T19:36:30.630Z,26.90
2022-11-09T19:41:51.754Z,24.70
2022-11-09T19:47:12.312Z,24.13
2022-11-09T19:52:32.679Z,25.77
2022-11-09T19:57:52.802Z,26.02
2022-11-09T20:03:12.918Z,25.42
2022-11-09T20:08:37.655Z,25.33
2022-11-09T20:13:57.656Z,23.75
2022-11-09T20:19:17.860Z,26.05
2022-11-09T20:24:38.322Z,25.88
2022-11-09T20:29:58.619Z,25.17
2022-11-09T20:35:18.925Z,20.65
2022-11-09T20:40:39.136Z,15.48
2022-11-09T20:46:04.388Z,11.25
2022-11-09T20:51:24.606Z,12.10
2022-11-09T20:56:45.595Z,16.33
2022-11-09T21:02:05.831Z,7.57
2022-11-09T21:07:26.120Z,6.82
2022-11-09T21:12:46.262Z,6.40
2022-11-09T21:18:07.566Z,6.20
2022-11-09T21:23:27.601Z,5.97
2022-11-09T21:29:06.443Z,5.60
2022-11-09T21:34:31.472Z,6.15
2022-11-09T21:39:54.587Z,5.07
2022-11-09T21:45:14.923Z,5.78
2022-11-09T21:50:35.221Z,5.07
2022-11-09T21:55:55.413Z,4.50
2022-11-09T22:01:18.099Z,5.40
2022-11-09T22:06:40.533Z,4.70
2022-11-09T22:12:19.593Z,4.85
2022-11-09T22:17:39.558Z,5.45
2022-11-09T22:22:59.751Z,4.75
2022-11-09T22:28:20.099Z,5.03
2022-11-09T22:33:40.450Z,3.10
2022-11-09T22:39:00.950Z,2.90
2022-11-09T22:44:21.146Z,2.78
2022-11-09T22:49:41.450Z,2.88
2022-11-09T22:55:01.703Z,3.03
2022-11-09T23:00:22.170Z,2.45
2022-11-09T23:05:42.114Z,2.30
2022-11-09T23:11:02.416Z,2.33
2022-11-09T23:16:23.518Z,1.90
2022-11-09T23:21:43.703Z,2.10
2022-11-09T23:27:03.901Z,1.80
2022-11-09T23:32:24.195Z,1.67
2022-11-09T23:37:44.429Z,1.83
2022-11-09T23:43:07.791Z,1.45
2022-11-09T23:48:28.124Z,1.23
2022-11-09T23:53:48.416Z,1.50
2022-11-09T23:59:08.588Z,1.20
